sensor_id;sensor_type;location;lat;lon;timestamp;pressure;altitude;pressure_sealevel;temperature;humidity
12486;BME280;6307;46.804;11.580;2023-02-05T00:02:25;-21065.38;;;7.10;28.11
12486;BME280;6307;46.804;11.580;2023-02-05T00:04:53;-21074.25;;;7.39;28.38
12486;BME280;6307;46.804;11.580;2023-02-05T00:07:19;-21062.22;;;6.99;28.71
12486;BME280;6307;46.804;11.580;2023-02-05T00:09:45;-21059.06;;;6.89;28.60
12486;BME280;6307;46.804;11.580;2023-02-05T00:12:11;-21070.03;;;7.25;28.48
12486;BME280;6307;46.804;11.580;2023-02-05T00:14:37;-21063.72;;;7.04;29.34
12486;BME280;6307;46.804;11.580;2023-02-05T00:17:03;-21062.22;;;6.99;28.91
12486;BME280;6307;46.804;11.580;2023-02-05T00:19:29;-21060.56;;;6.94;29.02
12486;BME280;6307;46.804;11.580;2023-02-05T00:21:55;-21061.16;;;6.96;28.79
12486;BME280;6307;46.804;11.580;2023-02-05T00:24:21;-21062.22;;;6.99;28.87
12486;BME280;6307;46.804;11.580;2023-02-05T00:26:48;-21069.88;;;7.24;29.13
12486;BME280;6307;46.804;11.580;2023-02-05T00:29:14;-21062.69;;;7.01;28.95
12486;BME280;6307;46.804;11.580;2023-02-05T00:31:40;-21071.69;;;7.30;28.70
12486;BME280;6307;46.804;11.580;2023-02-05T00:34:07;-21058.47;;;6.87;29.89
12486;BME280;6307;46.804;11.580;2023-02-05T00:36:33;-21065.84;;;7.11;29.25
12486;BME280;6307;46.804;11.580;2023-02-05T00:38:59;-21049.91;;;6.58;29.48
12486;BME280;6307;46.804;11.580;2023-02-05T00:41:25;-21058.16;;;6.86;29.45
12486;BME280;6307;46.804;11.580;2023-02-05T00:43:51;-21049.44;;;6.57;29.74
12486;BME280;6307;46.804;11.580;2023-02-05T00:46:17;-21050.66;;;6.61;29.39
12486;BME280;6307;46.804;11.580;2023-02-05T00:48:43;-21057.41;;;6.83;29.72
12486;BME280;6307;46.804;11.580;2023-02-05T00:51:10;-21065.69;;;7.11;29.60
12486;BME280;6307;46.804;11.580;2023-02-05T00:53:36;-21055.16;;;6.76;29.83
12486;BME280;6307;46.804;11.580;2023-02-05T00:56:03;-21049.75;;;6.58;29.62
12486;BME280;6307;46.804;11.580;2023-02-05T00:58:30;-21060.13;;;6.92;28.84
12486;BME280;6307;46.804;11.580;2023-02-05T01:00:56;-21060.56;;;6.94;29.54
12486;BME280;6307;46.804;11.580;2023-02-05T01:03:22;-21052.16;;;6.66;29.40
12486;BME280;6307;46.804;11.580;2023-02-05T01:05:48;-21051.53;;;6.64;29.60
12486;BME280;6307;46.804;11.580;2023-02-05T01:08:14;-21060.13;;;6.92;28.52
12486;BME280;6307;46.804;11.580;2023-02-05T01:10:45;-21051.41;;;6.63;28.97
12486;BME280;6307;46.804;11.580;2023-02-05T01:13:13;-21065.09;;;7.09;28.92
12486;BME280;6307;46.804;11.580;2023-02-05T01:15:40;-21062.53;;;7.00;28.61
12486;BME280;6307;46.804;11.580;2023-02-05T01:18:07;-21056.34;;;6.80;29.54
12486;BME280;6307;46.804;11.580;2023-02-05T01:20:37;-21051.09;;;6.62;29.40
12486;BME280;6307;46.804;11.580;2023-02-05T01:23:05;-21055.59;;;6.77;29.30
12486;BME280;6307;46.804;11.580;2023-02-05T01:25:32;-21059.06;;;6.89;29.55
12486;BME280;6307;46.804;11.580;2023-02-05T01:27:58;-21052.91;;;6.68;28.79
12486;BME280;6307;46.804;11.580;2023-02-05T01:30:24;-21060.72;;;6.94;28.83
12486;BME280;6307;46.804;11.580;2023-02-05T01:32:50;-21058.31;;;6.86;29.21
12486;BME280;6307;46.804;11.580;2023-02-05T01:35:16;-21051.53;;;6.64;29.67
12486;BME280;6307;46.804;11.580;2023-02-05T01:37:43;-21049.75;;;6.58;29.66
12486;BME280;6307;46.804;11.580;2023-02-05T01:40:13;-21042.66;;;6.34;29.04
12486;BME280;6307;46.804;11.580;2023-02-05T01:42:40;-21057.88;;;6.85;28.32
12486;BME280;6307;46.804;11.580;2023-02-05T01:47:58;-21058.91;;;6.88;27.77
12486;BME280;6307;46.804;11.580;2023-02-05T01:53:07;-21048.38;;;6.53;28.48
12486;BME280;6307;46.804;11.580;2023-02-05T01:55:43;-21055.59;;;6.77;27.72
12486;BME280;6307;46.804;11.580;2023-02-05T01:58:15;-21061.16;;;6.96;27.17
12486;BME280;6307;46.804;11.580;2023-02-05T02:00:42;-21060.72;;;6.94;27.06
12486;BME280;6307;46.804;11.580;2023-02-05T02:03:10;-21055.47;;;6.77;27.67
12486;BME280;6307;46.804;11.580;2023-02-05T02:05:38;-21051.53;;;6.64;28.17
12486;BME280;6307;46.804;11.580;2023-02-05T02:08:05;-21052.00;;;6.65;27.96
12486;BME280;6307;46.804;11.580;2023-02-05T02:10:32;-21053.06;;;6.69;28.04
12486;BME280;6307;46.804;11.580;2023-02-05T02:12:59;-21052.44;;;6.67;27.08
12486;BME280;6307;46.804;11.580;2023-02-05T02:15:26;-21056.50;;;6.80;26.31
12486;BME280;6307;46.804;11.580;2023-02-05T02:17:57;-21057.56;;;6.84;26.02
12486;BME280;6307;46.804;11.580;2023-02-05T02:29:37;-21063.72;;;7.04;26.34
12486;BME280;6307;46.804;11.580;2023-02-05T02:35:15;-21059.06;;;6.89;26.11
12486;BME280;6307;46.804;11.580;2023-02-05T02:38:26;-21064.78;;;7.08;26.37
12486;BME280;6307;46.804;11.580;2023-02-05T02:41:03;-21051.84;;;6.65;26.85
12486;BME280;6307;46.804;11.580;2023-02-05T02:46:41;-21049.28;;;6.56;27.77
12486;BME280;6307;46.804;11.580;2023-02-05T02:49:15;-21056.22;;;6.79;27.49
12486;BME280;6307;46.804;11.580;2023-02-05T02:51:48;-21051.53;;;6.64;27.67
12486;BME280;6307;46.804;11.580;2023-02-05T02:54:17;-21053.81;;;6.71;27.99
12486;BME280;6307;46.804;11.580;2023-02-05T02:56:48;-21055.59;;;6.77;26.82
12486;BME280;6307;46.804;11.580;2023-02-05T02:59:22;-21053.06;;;6.69;26.05
12486;BME280;6307;46.804;11.580;2023-02-05T03:01:57;-21047.19;;;6.49;26.37
12486;BME280;6307;46.804;11.580;2023-02-05T03:04:29;-21050.03;;;6.59;26.67
12486;BME280;6307;46.804;11.580;2023-02-05T03:07:12;-21058.00;;;6.85;25.77
12486;BME280;6307;46.804;11.580;2023-02-05T03:09:49;-21052.91;;;6.68;26.87
12486;BME280;6307;46.804;11.580;2023-02-05T03:12:22;-21048.09;;;6.52;26.70
12486;BME280;6307;46.804;11.580;2023-02-05T03:14:49;-21047.78;;;6.51;25.99
12486;BME280;6307;46.804;11.580;2023-02-05T03:17:17;-21055.75;;;6.78;26.07
12486;BME280;6307;46.804;11.580;2023-02-05T03:19:51;-21054.09;;;6.72;26.42
12486;BME280;6307;46.804;11.580;2023-02-05T03:22:27;-21044.03;;;6.39;28.41
12486;BME280;6307;46.804;11.580;2023-02-05T03:24:53;-21043.56;;;6.37;28.42
12486;BME280;6307;46.804;11.580;2023-02-05T03:27:20;-21035.59;;;6.11;29.96
12486;BME280;6307;46.804;11.580;2023-02-05T03:29:48;-21033.19;;;6.03;30.32
12486;BME280;6307;46.804;11.580;2023-02-05T03:35:48;-21035.59;;;6.11;30.28
12486;BME280;6307;46.804;11.580;2023-02-05T03:41:19;-21029.44;;;5.90;31.05
12486;BME280;6307;46.804;11.580;2023-02-05T03:44:26;-21022.34;;;5.67;31.28
12486;BME280;6307;46.804;11.580;2023-02-05T03:47:03;-21018.13;;;5.53;31.58
12486;BME280;6307;46.804;11.580;2023-02-05T03:49:51;-21021.75;;;5.65;31.25
12486;BME280;6307;46.804;11.580;2023-02-05T03:52:36;-21021.44;;;5.64;32.74
12486;BME280;6307;46.804;11.580;2023-02-05T03:55:14;-21022.34;;;5.67;32.44
12486;BME280;6307;46.804;11.580;2023-02-05T03:57:49;-21023.56;;;5.71;32.90
12486;BME280;6307;46.804;11.580;2023-02-05T04:00:25;-21021.59;;;5.64;32.11
12486;BME280;6307;46.804;11.580;2023-02-05T04:02:52;-21013.47;;;5.37;33.62
12486;BME280;6307;46.804;11.580;2023-02-05T04:05:18;-21019.66;;;5.58;32.67
12486;BME280;6307;46.804;11.580;2023-02-05T04:07:49;-21010.91;;;5.29;33.30
12486;BME280;6307;46.804;11.580;2023-02-05T04:10:17;-21012.72;;;5.35;32.95
12486;BME280;6307;46.804;11.580;2023-02-05T04:12:44;-21022.66;;;5.68;31.63
12486;BME280;6307;46.804;11.580;2023-02-05T04:15:10;-21025.50;;;5.77;33.12
12486;BME280;6307;46.804;11.580;2023-02-05T04:17:37;-21017.25;;;5.50;34.01
12486;BME280;6307;46.804;11.580;2023-02-05T04:20:05;-21018.44;;;5.54;32.51
12486;BME280;6307;46.804;11.580;2023-02-05T04:22:32;-21013.94;;;5.39;33.66
12486;BME280;6307;46.804;11.580;2023-02-05T04:24:58;-21015.13;;;5.43;33.25
12486;BME280;6307;46.804;11.580;2023-02-05T04:27:24;-21009.88;;;5.25;33.81
12486;BME280;6307;46.804;11.580;2023-02-05T04:29:50;-20996.75;;;4.82;35.58
12486;BME280;6307;46.804;11.580;2023-02-05T04:32:16;-21004.28;;;5.07;33.79
12486;BME280;6307;46.804;11.580;2023-02-05T04:34:43;-21022.66;;;5.68;31.70
12486;BME280;6307;46.804;11.580;2023-02-05T04:37:09;-21016.94;;;5.49;31.93
12486;BME280;6307;46.804;11.580;2023-02-05T04:39:35;-21018.13;;;5.53;32.01
12486;BME280;6307;46.804;11.580;2023-02-05T04:42:01;-21015.59;;;5.44;31.40
12486;BME280;6307;46.804;11.580;2023-02-05T04:44:27;-21016.19;;;5.46;31.93
12486;BME280;6307;46.804;11.580;2023-02-05T04:46:53;-21023.72;;;5.71;31.49
12486;BME280;6307;46.804;11.580;2023-02-05T04:49:19;-21018.28;;;5.53;31.89
12486;BME280;6307;46.804;11.580;2023-02-05T04:51:45;-21001.44;;;4.97;33.51
12486;BME280;6307;46.804;11.580;2023-02-05T04:54:12;-21018.44;;;5.54;31.77
12486;BME280;6307;46.804;11.580;2023-02-05T04:56:38;-21015.88;;;5.45;32.19
12486;BME280;6307;46.804;11.580;2023-02-05T04:59:04;-21013.03;;;5.36;32.49
12486;BME280;6307;46.804;11.580;2023-02-05T05:01:31;-21008.81;;;5.22;32.07
12486;BME280;6307;46.804;11.580;2023-02-05T05:03:57;-21017.84;;;5.52;32.30
12486;BME280;6307;46.804;11.580;2023-02-05T05:06:23;-21013.16;;;5.36;32.96
12486;BME280;6307;46.804;11.580;2023-02-05T05:08:50;-21001.13;;;4.96;32.93
12486;BME280;6307;46.804;11.580;2023-02-05T05:11:18;-21011.38;;;5.30;32.34
12486;BME280;6307;46.804;11.580;2023-02-05T05:13:44;-21008.97;;;5.22;32.54
12486;BME280;6307;46.804;11.580;2023-02-05T05:16:11;-21008.50;;;5.21;34.06
12486;BME280;6307;46.804;11.580;2023-02-05T05:18:39;-21006.41;;;5.14;33.58
12486;BME280;6307;46.804;11.580;2023-02-05T05:21:06;-20998.88;;;4.89;33.55
12486;BME280;6307;46.804;11.580;2023-02-05T05:23:32;-21002.19;;;5.00;33.49
12486;BME280;6307;46.804;11.580;2023-02-05T05:26:06;-21007.00;;;5.16;33.33
12486;BME280;6307;46.804;11.580;2023-02-05T05:28:34;-21004.44;;;5.07;33.54
12486;BME280;6307;46.804;11.580;2023-02-05T05:31:12;-21010.63;;;5.28;33.60
12486;BME280;6307;46.804;11.580;2023-02-05T05:33:44;-20998.72;;;4.88;33.07
12486;BME280;6307;46.804;11.580;2023-02-05T05:36:11;-20993.91;;;4.72;33.98
12486;BME280;6307;46.804;11.580;2023-02-05T05:38:38;-21001.28;;;4.97;32.90
12486;BME280;6307;46.804;11.580;2023-02-05T05:41:04;-21003.84;;;5.05;32.84
12486;BME280;6307;46.804;11.580;2023-02-05T05:43:52;-21001.59;;;4.98;31.93
12486;BME280;6307;46.804;11.580;2023-02-05T05:46:21;-21003.09;;;5.03;32.29
12486;BME280;6307;46.804;11.580;2023-02-05T05:48:50;-21004.59;;;5.08;32.77
12486;BME280;6307;46.804;11.580;2023-02-05T05:51:19;-20996.00;;;4.79;34.28
12486;BME280;6307;46.804;11.580;2023-02-05T05:53:46;-20999.16;;;4.90;33.05
12486;BME280;6307;46.804;11.580;2023-02-05T05:56:13;-21002.63;;;5.01;33.19
12486;BME280;6307;46.804;11.580;2023-02-05T05:58:40;-21005.19;;;5.10;32.30
12486;BME280;6307;46.804;11.580;2023-02-05T06:01:07;-21004.00;;;5.06;32.84
12486;BME280;6307;46.804;11.580;2023-02-05T06:03:34;-21005.50;;;5.11;33.23
12486;BME280;6307;46.804;11.580;2023-02-05T06:06:05;-21002.94;;;5.02;32.64
12486;BME280;6307;46.804;11.580;2023-02-05T06:08:32;-21003.38;;;5.04;33.09
12486;BME280;6307;46.804;11.580;2023-02-05T06:10:59;-21005.50;;;5.11;32.42
12486;BME280;6307;46.804;11.580;2023-02-05T06:13:25;-21004.44;;;5.07;32.63
12486;BME280;6307;46.804;11.580;2023-02-05T06:15:51;-21005.19;;;5.10;32.89
12486;BME280;6307;46.804;11.580;2023-02-05T06:18:19;-21000.38;;;4.94;33.13
12486;BME280;6307;46.804;11.580;2023-02-05T06:20:45;-21006.25;;;5.13;32.93
12486;BME280;6307;46.804;11.580;2023-02-05T06:23:11;-21008.81;;;5.22;32.97
12486;BME280;6307;46.804;11.580;2023-02-05T06:25:38;-21004.13;;;5.06;32.92
12486;BME280;6307;46.804;11.580;2023-02-05T06:28:05;-20998.25;;;4.87;33.37
12486;BME280;6307;46.804;11.580;2023-02-05T06:30:31;-21005.19;;;5.10;33.22
12486;BME280;6307;46.804;11.580;2023-02-05T06:32:57;-21005.03;;;5.09;33.42
12486;BME280;6307;46.804;11.580;2023-02-05T06:35:23;-21005.66;;;5.11;32.25
12486;BME280;6307;46.804;11.580;2023-02-05T06:37:49;-21004.00;;;5.06;32.26
12486;BME280;6307;46.804;11.580;2023-02-05T06:40:16;-21004.13;;;5.06;32.16
12486;BME280;6307;46.804;11.580;2023-02-05T06:42:45;-21002.50;;;5.01;32.74
12486;BME280;6307;46.804;11.580;2023-02-05T06:45:11;-20998.25;;;4.87;32.64
12486;BME280;6307;46.804;11.580;2023-02-05T06:47:37;-21004.00;;;5.06;31.54
12486;BME280;6307;46.804;11.580;2023-02-05T06:50:05;-20998.41;;;4.87;32.17
12486;BME280;6307;46.804;11.580;2023-02-05T06:52:32;-21004.44;;;5.07;31.90
12486;BME280;6307;46.804;11.580;2023-02-05T06:54:58;-21000.06;;;4.93;33.02
12486;BME280;6307;46.804;11.580;2023-02-05T06:57:24;-21000.22;;;4.93;32.98
12486;BME280;6307;46.804;11.580;2023-02-05T06:59:51;-20997.38;;;4.84;32.64
12486;BME280;6307;46.804;11.580;2023-02-05T07:02:17;-20996.31;;;4.80;33.28
12486;BME280;6307;46.804;11.580;2023-02-05T07:04:43;-20994.22;;;4.73;33.28
12486;BME280;6307;46.804;11.580;2023-02-05T07:07:09;-21002.63;;;5.01;32.92
12486;BME280;6307;46.804;11.580;2023-02-05T07:09:35;-21002.78;;;5.02;33.80
12486;BME280;6307;46.804;11.580;2023-02-05T07:12:02;-20999.78;;;4.92;35.08
12486;BME280;6307;46.804;11.580;2023-02-05T07:14:28;-20996.63;;;4.81;34.93
12486;BME280;6307;46.804;11.580;2023-02-05T07:16:55;-20994.06;;;4.73;35.04
12486;BME280;6307;46.804;11.580;2023-02-05T07:19:21;-20997.81;;;4.85;34.57
12486;BME280;6307;46.804;11.580;2023-02-05T07:21:48;-20993.75;;;4.72;35.31
12486;BME280;6307;46.804;11.580;2023-02-05T07:24:14;-20993.91;;;4.72;34.96
12486;BME280;6307;46.804;11.580;2023-02-05T07:26:40;-20998.88;;;4.89;34.50
12486;BME280;6307;46.804;11.580;2023-02-05T07:29:07;-21000.22;;;4.93;34.92
12486;BME280;6307;46.804;11.580;2023-02-05T07:31:33;-21000.38;;;4.94;34.84
12486;BME280;6307;46.804;11.580;2023-02-05T07:34:00;-21003.09;;;5.03;35.25
12486;BME280;6307;46.804;11.580;2023-02-05T07:36:26;-21000.97;;;4.96;33.11
12486;BME280;6307;46.804;11.580;2023-02-05T07:38:52;-21009.25;;;5.23;32.88
12486;BME280;6307;46.804;11.580;2023-02-05T07:41:18;-21007.00;;;5.16;32.65
12486;BME280;6307;46.804;11.580;2023-02-05T07:43:44;-21003.09;;;5.03;33.16
12486;BME280;6307;46.804;11.580;2023-02-05T07:46:14;-21007.31;;;5.17;32.95
12486;BME280;6307;46.804;11.580;2023-02-05T07:48:40;-21002.19;;;5.00;33.34
12486;BME280;6307;46.804;11.580;2023-02-05T07:51:06;-21008.50;;;5.21;31.94
12486;BME280;6307;46.804;11.580;2023-02-05T07:53:38;-21017.09;;;5.49;32.16
12486;BME280;6307;46.804;11.580;2023-02-05T07:56:04;-21004.00;;;5.06;32.17
12486;BME280;6307;46.804;11.580;2023-02-05T07:58:30;-21008.50;;;5.21;32.22
12486;BME280;6307;46.804;11.580;2023-02-05T08:01:01;-21010.75;;;5.28;32.24
12486;BME280;6307;46.804;11.580;2023-02-05T08:03:28;-21007.31;;;5.17;31.48
12486;BME280;6307;46.804;11.580;2023-02-05T08:05:55;-21011.53;;;5.31;30.93
12486;BME280;6307;46.804;11.580;2023-02-05T08:08:21;-21016.03;;;5.46;30.04
12486;BME280;6307;46.804;11.580;2023-02-05T08:10:57;-21011.53;;;5.31;29.71
12486;BME280;6307;46.804;11.580;2023-02-05T08:13:26;-21021.91;;;5.65;29.59
12486;BME280;6307;46.804;11.580;2023-02-05T08:15:53;-21023.09;;;5.69;29.05
12486;BME280;6307;46.804;11.580;2023-02-05T08:18:19;-21025.66;;;5.78;30.15
12486;BME280;6307;46.804;11.580;2023-02-05T08:20:45;-21019.94;;;5.59;29.91
12486;BME280;6307;46.804;11.580;2023-02-05T08:23:12;-21020.84;;;5.62;29.30
12486;BME280;6307;46.804;11.580;2023-02-05T08:25:38;-21025.22;;;5.76;29.24
12486;BME280;6307;46.804;11.580;2023-02-05T08:28:05;-21028.09;;;5.86;29.56
12486;BME280;6307;46.804;11.580;2023-02-05T08:30:31;-21027.94;;;5.85;29.40
12486;BME280;6307;46.804;11.580;2023-02-05T08:32:57;-21030.03;;;5.92;28.31
12486;BME280;6307;46.804;11.580;2023-02-05T08:35:23;-21039.22;;;6.23;28.33
12486;BME280;6307;46.804;11.580;2023-02-05T08:37:49;-21035.31;;;6.10;29.70
12486;BME280;6307;46.804;11.580;2023-02-05T08:40:15;-21027.19;;;5.83;28.40
12486;BME280;6307;46.804;11.580;2023-02-05T08:42:42;-21037.25;;;6.16;29.88
12486;BME280;6307;46.804;11.580;2023-02-05T08:45:08;-21027.78;;;5.85;28.50
12486;BME280;6307;46.804;11.580;2023-02-05T08:47:35;-21040.88;;;6.28;27.76
12486;BME280;6307;46.804;11.580;2023-02-05T08:50:03;-21048.25;;;6.53;32.58
12486;BME280;6307;46.804;11.580;2023-02-05T08:52:30;-21043.72;;;6.38;28.49
12486;BME280;6307;46.804;11.580;2023-02-05T08:54:57;-21042.22;;;6.33;28.47
12486;BME280;6307;46.804;11.580;2023-02-05T08:57:28;-21035.16;;;6.09;27.83
12486;BME280;6307;46.804;11.580;2023-02-05T08:59:55;-21052.75;;;6.68;29.72
12486;BME280;6307;46.804;11.580;2023-02-05T09:02:21;-21046.59;;;6.47;29.45
12486;BME280;6307;46.804;11.580;2023-02-05T09:04:48;-21038.75;;;6.21;29.62
12486;BME280;6307;46.804;11.580;2023-02-05T09:07:14;-21038.16;;;6.19;29.34
12486;BME280;6307;46.804;11.580;2023-02-05T09:09:41;-21035.75;;;6.11;29.37
12486;BME280;6307;46.804;11.580;2023-02-05T09:12:08;-21035.00;;;6.09;29.68
12486;BME280;6307;46.804;11.580;2023-02-05T09:14:38;-21032.00;;;5.99;29.87
12486;BME280;6307;46.804;11.580;2023-02-05T09:17:07;-21026.72;;;5.81;29.55
12486;BME280;6307;46.804;11.580;2023-02-05T09:19:36;-21027.47;;;5.84;29.42
12486;BME280;6307;46.804;11.580;2023-02-05T09:22:04;-21034.09;;;6.06;29.35
12486;BME280;6307;46.804;11.580;2023-02-05T09:24:31;-21031.84;;;5.98;28.53
12486;BME280;6307;46.804;11.580;2023-02-05T09:26:58;-21027.94;;;5.85;28.76
12486;BME280;6307;46.804;11.580;2023-02-05T09:29:24;-21035.16;;;6.09;28.84
12486;BME280;6307;46.804;11.580;2023-02-05T09:31:52;-21028.09;;;5.86;28.75
12486;BME280;6307;46.804;11.580;2023-02-05T09:34:18;-21038.75;;;6.21;30.10
12486;BME280;6307;46.804;11.580;2023-02-05T09:36:44;-21033.78;;;6.05;29.55
12486;BME280;6307;46.804;11.580;2023-02-05T09:39:10;-21037.84;;;6.18;30.02
12486;BME280;6307;46.804;11.580;2023-02-05T09:44:37;-21031.38;;;5.97;28.71
12486;BME280;6307;46.804;11.580;2023-02-05T09:47:31;-21042.22;;;6.33;27.83
12486;BME280;6307;46.804;11.580;2023-02-05T09:50:20;-21043.13;;;6.36;29.35
12486;BME280;6307;46.804;11.580;2023-02-05T09:53:00;-21039.06;;;6.22;27.77
12486;BME280;6307;46.804;11.580;2023-02-05T09:55:32;-21046.28;;;6.46;28.37
12486;BME280;6307;46.804;11.580;2023-02-05T09:58:06;-21040.56;;;6.27;29.04
12486;BME280;6307;46.804;11.580;2023-02-05T10:00:50;-21045.06;;;6.42;27.80
12486;BME280;6307;46.804;11.580;2023-02-05T10:03:33;-21045.22;;;6.43;25.87
12486;BME280;6307;46.804;11.580;2023-02-05T10:11:30;-21057.09;;;6.82;25.45
12486;BME280;6307;46.804;11.580;2023-02-05T10:16:52;-21064.94;;;7.08;24.74
12486;BME280;6307;46.804;11.580;2023-02-05T10:22:27;-21056.81;;;6.81;27.85
12486;BME280;6307;46.804;11.580;2023-02-05T10:25:31;-21043.13;;;6.36;27.38
12486;BME280;6307;46.804;11.580;2023-02-05T10:31:41;-21068.25;;;7.19;24.48
12486;BME280;6307;46.804;11.580;2023-02-05T10:37:04;-21062.38;;;7.00;26.90
12486;BME280;6307;46.804;11.580;2023-02-05T10:39:36;-21062.69;;;7.01;25.63
12486;BME280;6307;46.804;11.580;2023-02-05T10:42:23;-21064.63;;;7.07;26.80
12486;BME280;6307;46.804;11.580;2023-02-05T10:45:16;-21052.16;;;6.66;26.64
12486;BME280;6307;46.804;11.580;2023-02-05T10:51:02;-21067.78;;;7.18;25.76
12486;BME280;6307;46.804;11.580;2023-02-05T10:53:29;-21073.66;;;7.37;27.07
12486;BME280;6307;46.804;11.580;2023-02-05T10:55:58;-21063.72;;;7.04;28.53
12486;BME280;6307;46.804;11.580;2023-02-05T10:59:00;-21078.00;;;7.51;24.09
12486;BME280;6307;46.804;11.580;2023-02-05T11:01:34;-21088.97;;;7.88;26.73
12486;BME280;6307;46.804;11.580;2023-02-05T11:04:10;-21088.38;;;7.86;25.62
12486;BME280;6307;46.804;11.580;2023-02-05T11:06:48;-21085.53;;;7.76;23.43
12486;BME280;6307;46.804;11.580;2023-02-05T11:12:03;-21099.03;;;8.21;25.38
12486;BME280;6307;46.804;11.580;2023-02-05T11:14:40;-21091.09;;;7.95;23.85
12486;BME280;6307;46.804;11.580;2023-02-05T11:17:19;-21095.28;;;8.09;26.32
12486;BME280;6307;46.804;11.580;2023-02-05T11:19:58;-21094.09;;;8.05;26.21
12486;BME280;6307;46.804;11.580;2023-02-05T11:22:33;-21092.59;;;8.00;26.00
12486;BME280;6307;46.804;11.580;2023-02-05T11:25:21;-21091.81;;;7.97;23.45
12486;BME280;6307;46.804;11.580;2023-02-05T11:27:56;-21090.78;;;7.94;26.89
12486;BME280;6307;46.804;11.580;2023-02-05T11:30:35;-21083.72;;;7.70;23.92
12486;BME280;6307;46.804;11.580;2023-02-05T11:33:28;-21094.38;;;8.06;25.79
12486;BME280;6307;46.804;11.580;2023-02-05T11:38:32;-21099.78;;;8.24;23.57
12486;BME280;6307;46.804;11.580;2023-02-05T11:41:05;-21104.00;;;8.38;24.33
12486;BME280;6307;46.804;11.580;2023-02-05T11:43:36;-21116.03;;;8.78;24.94
12486;BME280;6307;46.804;11.580;2023-02-05T11:46:07;-21116.31;;;8.79;22.77
12486;BME280;6307;46.804;11.580;2023-02-05T11:48:39;-21122.78;;;9.00;22.17
12486;BME280;6307;46.804;11.580;2023-02-05T11:51:13;-21139.13;;;9.55;21.90
12486;BME280;6307;46.804;11.580;2023-02-05T11:53:54;-21135.53;;;9.43;21.28
12486;BME280;6307;46.804;11.580;2023-02-05T11:56:23;-21148.59;;;9.86;20.30
12486;BME280;6307;46.804;11.580;2023-02-05T11:59:02;-21137.03;;;9.48;20.82
12486;BME280;6307;46.804;11.580;2023-02-05T12:01:38;-21143.34;;;9.69;20.29
12486;BME280;6307;46.804;11.580;2023-02-05T12:09:25;-21141.09;;;9.61;20.96
12486;BME280;6307;46.804;11.580;2023-02-05T12:14:59;-21150.38;;;9.92;20.49
12486;BME280;6307;46.804;11.580;2023-02-05T12:17:50;-21153.53;;;10.03;20.11
12486;BME280;6307;46.804;11.580;2023-02-05T12:20:49;-21157.44;;;10.16;19.84
12486;BME280;6307;46.804;11.580;2023-02-05T12:29:23;-21167.03;;;10.48;19.67
12486;BME280;6307;46.804;11.580;2023-02-05T12:35:01;-21155.66;;;10.10;21.01
12486;BME280;6307;46.804;11.580;2023-02-05T12:40:50;-21165.09;;;10.41;20.08
12486;BME280;6307;46.804;11.580;2023-02-05T12:43:40;-21163.16;;;10.35;20.67
12486;BME280;6307;46.804;11.580;2023-02-05T12:57:07;-21165.84;;;10.44;20.82
12486;BME280;6307;46.804;11.580;2023-02-05T12:59:45;-21155.19;;;10.08;20.52
12486;BME280;6307;46.804;11.580;2023-02-05T13:02:41;-21155.34;;;10.09;20.87
12486;BME280;6307;46.804;11.580;2023-02-05T13:05:39;-21148.75;;;9.87;21.14
12486;BME280;6307;46.804;11.580;2023-02-05T13:08:21;-21156.69;;;10.13;20.94
12486;BME280;6307;46.804;11.580;2023-02-05T13:11:01;-21145.00;;;9.74;20.65
12486;BME280;6307;46.804;11.580;2023-02-05T13:16:17;-21152.50;;;9.99;21.35
12486;BME280;6307;46.804;11.580;2023-02-05T13:19:09;-21140.34;;;9.59;20.94
12486;BME280;6307;46.804;11.580;2023-02-05T13:21:50;-21148.59;;;9.86;20.14
12486;BME280;6307;46.804;11.580;2023-02-05T13:24:41;-21148.44;;;9.86;20.27
12486;BME280;6307;46.804;11.580;2023-02-05T13:27:40;-21150.38;;;9.92;20.25
12486;BME280;6307;46.804;11.580;2023-02-05T13:30:33;-21131.19;;;9.28;21.10
12486;BME280;6307;46.804;11.580;2023-02-05T13:33:05;-21129.97;;;9.24;21.07
12486;BME280;6307;46.804;11.580;2023-02-05T13:53:37;-21127.72;;;9.17;22.74
12486;BME280;6307;46.804;11.580;2023-02-05T13:59:18;-21114.38;;;8.72;21.87
12486;BME280;6307;46.804;11.580;2023-02-05T14:02:00;-21125.94;;;9.11;22.39
12486;BME280;6307;46.804;11.580;2023-02-05T14:04:36;-21110.16;;;8.58;21.91
12486;BME280;6307;46.804;11.580;2023-02-05T14:07:29;-21112.28;;;8.65;21.90
12486;BME280;6307;46.804;11.580;2023-02-05T14:09:59;-21118.88;;;8.87;22.87
12486;BME280;6307;46.804;11.580;2023-02-05T14:12:32;-21098.28;;;8.19;21.15
12486;BME280;6307;46.804;11.580;2023-02-05T14:22:53;-21105.50;;;8.43;24.00
12486;BME280;6307;46.804;11.580;2023-02-05T14:35:55;-21101.44;;;8.29;24.05
12486;BME280;6307;46.804;11.580;2023-02-05T14:41:25;-21105.50;;;8.43;23.98
12486;BME280;6307;46.804;11.580;2023-02-05T14:44:34;-21097.25;;;8.15;23.56
12486;BME280;6307;46.804;11.580;2023-02-05T14:49:46;-21090.47;;;7.93;23.43
12486;BME280;6307;46.804;11.580;2023-02-05T14:52:36;-21096.19;;;8.12;23.89
12486;BME280;6307;46.804;11.580;2023-02-05T14:58:00;-21096.03;;;8.11;23.58
12486;BME280;6307;46.804;11.580;2023-02-05T15:00:38;-21099.34;;;8.22;24.07
12486;BME280;6307;46.804;11.580;2023-02-05T15:05:50;-21092.59;;;8.00;23.96
12486;BME280;6307;46.804;11.580;2023-02-05T15:11:09;-21093.78;;;8.04;24.60
12486;BME280;6307;46.804;11.580;2023-02-05T15:16:47;-21087.16;;;7.82;25.04
12486;BME280;6307;46.804;11.580;2023-02-05T15:19:46;-21093.78;;;8.04;25.08
12486;BME280;6307;46.804;11.580;2023-02-05T15:22:35;-21078.47;;;7.53;25.09
12486;BME280;6307;46.804;11.580;2023-02-05T15:25:32;-21083.41;;;7.69;25.71
12486;BME280;6307;46.804;11.580;2023-02-05T15:28:07;-21081.75;;;7.64;25.43
12486;BME280;6307;46.804;11.580;2023-02-05T15:30:48;-21076.97;;;7.48;26.41
12486;BME280;6307;46.804;11.580;2023-02-05T15:33:29;-21068.09;;;7.18;25.75
12486;BME280;6307;46.804;11.580;2023-02-05T15:36:10;-21076.66;;;7.47;25.70
12486;BME280;6307;46.804;11.580;2023-02-05T15:38:48;-21074.09;;;7.38;26.36
12486;BME280;6307;46.804;11.580;2023-02-05T15:41:22;-21076.50;;;7.46;26.60
12486;BME280;6307;46.804;11.580;2023-02-05T15:44:00;-21070.78;;;7.28;27.21
12486;BME280;6307;46.804;11.580;2023-02-05T15:46:30;-21064.47;;;7.07;26.93
12486;BME280;6307;46.804;11.580;2023-02-05T15:48:57;-21067.63;;;7.17;27.35
12486;BME280;6307;46.804;11.580;2023-02-05T15:51:29;-21069.13;;;7.22;27.42